CYED weather

Edmonton (CFB Namao) Heliport
Edmonton, Alberta, Canada

Public forecast

Using degrees Celsius for public forecast. Weather courtesy of forecast.io.

METAR (pilot weather report)

Retrieved 2019/07/17 20:00 UTC (9 minutes ago):

CYED 172000Z 16007KT 9SM SCT048 SCT098 BKN210 23/14 A2961 RMK CU3AC1CI2 DA4276FT AC TR LAST STFD OBS/NEXT 180000 UTC SLP028

TAF (pilot weather forecast)

Retrieved 2019/07/17 18:33 UTC (2 hours ago):

TAF CYED 171731Z 1718/1806 14005KT P6SM FEW030 FEW210 FM171900 14008KT P6SM SCT050 SCT210 TEMPO 1719/1803 P6SM -SHRA BKN050 PROB30 1719/1723 VRB15G25KT 2SM TSRA BR OVC040CB FM180300 VRB03KT P6SM BKN060 OVC200 RMK NXT FCST BY 180000Z